Orlando, Florida
Traffic Map
Current Weather Conditions
Orlando, Florida
Few Clouds
Few Clouds
25°
Feels Like: 26°
Wind Chill: 25° Ceiling: Unl
Heat Index: 26° Visibility: 10mi
Dew Point: 24° Wind: 3mph
Humidity: 94% Direction: 200° (SSW)
Pressure: 30.08in Gusts: 0mph
Raw Report DataKORL 020453Z AUTO 20003KT 10SM FEW006 25/24 A3008 RMK AO2 SLP188 T02500239 403330239
Traffic Incident Summary
Active as of:
Severity:
Category:
InformationThere was an issue retrieving the traffic information for this location. Please try a different location or try again shortly.
Advertisements
Track Severe Weather on mobile